sensor_id;sensor_type;location;lat;lon;timestamp;pressure;altitude;pressure_sealevel;temperature;humidity
51986;BME280;38002;53.296;6.600;2024-03-23T00:57:09;101131.78;;;5.60;100.00
51986;BME280;38002;53.296;6.600;2024-03-23T01:02:10;101131.28;;;5.55;100.00
51986;BME280;38002;53.296;6.600;2024-03-23T01:07:10;101121.81;;;5.49;100.00
51986;BME280;38002;53.296;6.600;2024-03-23T01:12:10;101105.03;;;5.45;100.00
51986;BME280;38002;53.296;6.600;2024-03-23T01:17:11;101107.03;;;5.43;100.00
51986;BME280;38002;53.296;6.600;2024-03-23T01:22:11;101088.50;;;5.39;100.00
51986;BME280;38002;53.296;6.600;2024-03-23T01:27:12;101095.13;;;5.35;100.00
51986;BME280;38002;53.296;6.600;2024-03-23T01:32:13;101089.25;;;5.30;100.00
51986;BME280;38002;53.296;6.600;2024-03-23T01:37:13;101077.38;;;5.21;100.00
51986;BME280;38002;53.296;6.600;2024-03-23T01:42:13;101070.50;;;5.17;100.00
51986;BME280;38002;53.296;6.600;2024-03-23T01:47:14;101068.41;;;5.10;100.00
51986;BME280;38002;53.296;6.600;2024-03-23T01:52:15;101069.50;;;5.07;100.00
51986;BME280;38002;53.296;6.600;2024-03-23T01:57:15;101056.28;;;5.04;100.00
51986;BME280;38002;53.296;6.600;2024-03-23T02:02:16;101041.09;;;5.03;100.00
51986;BME280;38002;53.296;6.600;2024-03-23T02:07:17;101041.34;;;5.00;100.00
51986;BME280;38002;53.296;6.600;2024-03-23T02:12:18;101026.50;;;4.94;100.00
51986;BME280;38002;53.296;6.600;2024-03-23T02:17:18;101029.31;;;4.93;100.00
51986;BME280;38002;53.296;6.600;2024-03-23T02:22:18;101016.81;;;4.92;100.00
51986;BME280;38002;53.296;6.600;2024-03-23T02:27:19;101010.97;;;4.87;100.00
51986;BME280;38002;53.296;6.600;2024-03-23T02:32:19;101006.56;;;4.86;100.00
51986;BME280;38002;53.296;6.600;2024-03-23T02:37:20;101006.91;;;4.81;100.00
51986;BME280;38002;53.296;6.600;2024-03-23T02:42:20;100998.44;;;4.75;100.00
51986;BME280;38002;53.296;6.600;2024-03-23T02:47:20;100999.81;;;4.69;100.00
51986;BME280;38002;53.296;6.600;2024-03-23T02:52:21;101005.31;;;4.68;100.00
51986;BME280;38002;53.296;6.600;2024-03-23T02:57:21;100986.97;;;4.62;100.00
51986;BME280;38002;53.296;6.600;2024-03-23T03:02:22;100976.28;;;4.60;100.00
51986;BME280;38002;53.296;6.600;2024-03-23T03:07:22;100978.38;;;4.56;100.00
51986;BME280;38002;53.296;6.600;2024-03-23T03:12:23;100977.50;;;4.56;100.00
51986;BME280;38002;53.296;6.600;2024-03-23T03:17:23;100983.97;;;4.53;100.00
51986;BME280;38002;53.296;6.600;2024-03-23T03:22:24;100973.72;;;4.47;100.00
51986;BME280;38002;53.296;6.600;2024-03-23T03:27:24;100966.84;;;4.43;100.00
51986;BME280;38002;53.296;6.600;2024-03-23T03:32:25;100959.84;;;4.41;100.00
51986;BME280;38002;53.296;6.600;2024-03-23T03:37:25;100968.19;;;4.38;100.00
51986;BME280;38002;53.296;6.600;2024-03-23T03:42:26;100965.84;;;4.33;100.00
51986;BME280;38002;53.296;6.600;2024-03-23T03:47:26;100951.78;;;4.30;100.00
51986;BME280;38002;53.296;6.600;2024-03-23T03:52:26;100941.25;;;4.27;100.00
51986;BME280;38002;53.296;6.600;2024-03-23T03:57:27;100934.25;;;4.24;100.00
51986;BME280;38002;53.296;6.600;2024-03-23T04:02:27;100930.00;;;4.22;100.00
51986;BME280;38002;53.296;6.600;2024-03-23T04:07:28;100921.41;;;4.17;100.00
51986;BME280;38002;53.296;6.600;2024-03-23T04:12:28;100931.44;;;4.15;100.00
51986;BME280;38002;53.296;6.600;2024-03-23T04:17:29;100922.63;;;4.13;100.00
51986;BME280;38002;53.296;6.600;2024-03-23T04:22:32;100916.63;;;4.09;100.00
51986;BME280;38002;53.296;6.600;2024-03-23T04:27:33;100912.59;;;4.03;100.00
51986;BME280;38002;53.296;6.600;2024-03-23T04:32:33;100904.63;;;4.02;100.00
51986;BME280;38002;53.296;6.600;2024-03-23T04:37:34;100914.66;;;4.00;100.00
51986;BME280;38002;53.296;6.600;2024-03-23T04:42:34;100911.22;;;3.98;100.00
51986;BME280;38002;53.296;6.600;2024-03-23T04:47:35;100908.78;;;3.95;100.00
51986;BME280;38002;53.296;6.600;2024-03-23T04:52:36;100900.69;;;3.95;100.00
51986;BME280;38002;53.296;6.600;2024-03-23T04:57:36;100894.47;;;3.94;100.00
51986;BME280;38002;53.296;6.600;2024-03-23T05:02:36;100894.56;;;3.93;100.00
51986;BME280;38002;53.296;6.600;2024-03-23T05:07:37;100891.88;;;3.93;100.00
51986;BME280;38002;53.296;6.600;2024-03-23T05:12:37;100882.22;;;3.90;100.00
51986;BME280;38002;53.296;6.600;2024-03-23T05:17:38;100885.88;;;3.89;100.00
51986;BME280;38002;53.296;6.600;2024-03-23T05:22:39;100882.22;;;3.90;100.00
51986;BME280;38002;53.296;6.600;2024-03-23T05:27:40;100885.66;;;3.92;100.00
51986;BME280;38002;53.296;6.600;2024-03-23T05:32:40;100874.91;;;3.92;100.00
51986;BME280;38002;53.296;6.600;2024-03-23T05:37:42;100875.63;;;3.94;100.00
51986;BME280;38002;53.296;6.600;2024-03-23T05:42:42;100878.94;;;3.98;100.00
51986;BME280;38002;53.296;6.600;2024-03-23T05:47:42;100880.91;;;3.96;100.00
51986;BME280;38002;53.296;6.600;2024-03-23T05:52:43;100895.31;;;3.95;100.00
51986;BME280;38002;53.296;6.600;2024-03-23T05:57:44;100891.78;;;3.94;100.00
51986;BME280;38002;53.296;6.600;2024-03-23T06:02:45;100882.84;;;3.94;100.00
51986;BME280;38002;53.296;6.600;2024-03-23T06:07:45;100873.81;;;3.95;100.00
51986;BME280;38002;53.296;6.600;2024-03-23T06:12:46;100884.31;;;3.98;100.00
51986;BME280;38002;53.296;6.600;2024-03-23T06:17:46;100889.72;;;4.09;100.00
51986;BME280;38002;53.296;6.600;2024-03-23T06:22:47;100896.09;;;4.19;100.00
51986;BME280;38002;53.296;6.600;2024-03-23T06:27:47;100881.19;;;4.26;100.00
51986;BME280;38002;53.296;6.600;2024-03-23T06:32:48;100876.06;;;4.34;100.00
51986;BME280;38002;53.296;6.600;2024-03-23T06:37:48;100879.97;;;4.41;100.00
51986;BME280;38002;53.296;6.600;2024-03-23T06:42:49;100873.34;;;4.45;100.00
51986;BME280;38002;53.296;6.600;2024-03-23T06:47:49;100872.13;;;4.49;100.00
51986;BME280;38002;53.296;6.600;2024-03-23T06:52:51;100864.41;;;4.56;100.00
51986;BME280;38002;53.296;6.600;2024-03-23T06:57:51;100862.81;;;4.65;100.00
51986;BME280;38002;53.296;6.600;2024-03-23T07:02:51;100857.03;;;4.80;100.00
51986;BME280;38002;53.296;6.600;2024-03-23T07:07:53;100862.38;;;5.02;100.00
51986;BME280;38002;53.296;6.600;2024-03-23T07:12:53;100868.34;;;5.17;100.00
51986;BME280;38002;53.296;6.600;2024-03-23T07:17:54;100857.34;;;5.41;100.00
51986;BME280;38002;53.296;6.600;2024-03-23T07:22:54;100874.66;;;5.59;100.00
51986;BME280;38002;53.296;6.600;2024-03-23T07:27:54;100870.44;;;5.66;100.00
51986;BME280;38002;53.296;6.600;2024-03-23T07:32:55;100858.22;;;5.62;100.00
51986;BME280;38002;53.296;6.600;2024-03-23T07:37:55;100854.41;;;5.65;100.00
51986;BME280;38002;53.296;6.600;2024-03-23T07:42:56;100842.81;;;5.74;100.00
51986;BME280;38002;53.296;6.600;2024-03-23T07:47:56;100834.31;;;5.89;100.00
51986;BME280;38002;53.296;6.600;2024-03-23T07:52:57;100834.78;;;6.04;100.00
51986;BME280;38002;53.296;6.600;2024-03-23T07:57:57;100836.88;;;6.21;100.00
51986;BME280;38002;53.296;6.600;2024-03-23T08:02:58;100836.44;;;6.47;100.00
51986;BME280;38002;53.296;6.600;2024-03-23T08:07:58;100833.44;;;6.90;100.00
51986;BME280;38002;53.296;6.600;2024-03-23T08:12:59;100824.63;;;7.26;100.00
51986;BME280;38002;53.296;6.600;2024-03-23T08:18:00;100814.66;;;7.17;100.00
51986;BME280;38002;53.296;6.600;2024-03-23T08:23:00;100830.03;;;6.97;100.00
51986;BME280;38002;53.296;6.600;2024-03-23T08:28:01;100822.28;;;6.73;100.00
51986;BME280;38002;53.296;6.600;2024-03-23T08:33:01;100820.88;;;6.79;100.00
51986;BME280;38002;53.296;6.600;2024-03-23T08:38:02;100819.81;;;7.10;100.00
51986;BME280;38002;53.296;6.600;2024-03-23T08:43:03;100820.50;;;7.60;100.00
51986;BME280;38002;53.296;6.600;2024-03-23T08:48:03;100816.75;;;7.90;100.00
51986;BME280;38002;53.296;6.600;2024-03-23T08:53:04;100809.78;;;7.78;100.00
51986;BME280;38002;53.296;6.600;2024-03-23T08:58:04;100795.94;;;7.81;100.00
51986;BME280;38002;53.296;6.600;2024-03-23T09:03:05;100785.91;;;8.10;100.00
51986;BME280;38002;53.296;6.600;2024-03-23T09:08:06;100780.34;;;8.49;100.00
51986;BME280;38002;53.296;6.600;2024-03-23T09:13:07;100771.13;;;8.87;100.00
51986;BME280;38002;53.296;6.600;2024-03-23T09:18:08;100771.66;;;8.90;100.00
51986;BME280;38002;53.296;6.600;2024-03-23T09:23:08;100767.09;;;8.91;100.00
51986;BME280;38002;53.296;6.600;2024-03-23T09:28:09;100804.03;;;8.74;100.00
51986;BME280;38002;53.296;6.600;2024-03-23T09:33:10;100809.25;;;8.21;100.00
51986;BME280;38002;53.296;6.600;2024-03-23T09:38:11;100801.84;;;7.67;100.00
51986;BME280;38002;53.296;6.600;2024-03-23T09:43:11;100804.84;;;7.35;100.00
51986;BME280;38002;53.296;6.600;2024-03-23T09:48:12;100804.69;;;7.08;100.00
51986;BME280;38002;53.296;6.600;2024-03-23T09:53:14;100792.47;;;6.94;100.00
51986;BME280;38002;53.296;6.600;2024-03-23T09:58:16;100784.22;;;7.34;100.00
51986;BME280;38002;53.296;6.600;2024-03-23T10:03:17;100780.56;;;7.91;100.00
51986;BME280;38002;53.296;6.600;2024-03-23T10:08:18;100774.16;;;8.29;100.00
51986;BME280;38002;53.296;6.600;2024-03-23T10:13:26;100762.44;;;8.65;97.20
51986;BME280;38002;53.296;6.600;2024-03-23T10:18:26;100770.22;;;9.14;99.45
51986;BME280;38002;53.296;6.600;2024-03-23T10:23:30;100757.41;;;9.67;100.00
51986;BME280;38002;53.296;6.600;2024-03-23T10:28:30;100766.50;;;10.10;100.00
51986;BME280;38002;53.296;6.600;2024-03-23T10:33:30;100761.72;;;10.63;100.00
51986;BME280;38002;53.296;6.600;2024-03-23T10:38:31;100785.13;;;10.48;97.77
51986;BME280;38002;53.296;6.600;2024-03-23T10:43:33;100779.31;;;9.66;98.13
51986;BME280;38002;53.296;6.600;2024-03-23T10:48:33;100773.53;;;9.07;99.17
51986;BME280;38002;53.296;6.600;2024-03-23T10:53:34;100779.91;;;8.53;99.83
51986;BME280;38002;53.296;6.600;2024-03-23T10:58:40;100781.22;;;8.03;99.27
51986;BME280;38002;53.296;6.600;2024-03-23T11:03:47;100787.03;;;7.52;99.13
51986;BME280;38002;53.296;6.600;2024-03-23T11:08:48;100792.91;;;7.18;100.00
51986;BME280;38002;53.296;6.600;2024-03-23T11:13:52;100782.19;;;7.55;100.00
51986;BME280;38002;53.296;6.600;2024-03-23T11:18:53;100777.97;;;7.99;100.00
51986;BME280;38002;53.296;6.600;2024-03-23T11:23:55;100750.69;;;8.47;100.00
51986;BME280;38002;53.296;6.600;2024-03-23T11:29:15;100761.31;;;9.21;99.95
51986;BME280;38002;53.296;6.600;2024-03-23T11:34:16;100774.00;;;9.21;99.27
51986;BME280;38002;53.296;6.600;2024-03-23T11:39:18;100753.78;;;8.80;98.64
51986;BME280;38002;53.296;6.600;2024-03-23T11:44:25;100751.78;;;8.54;100.00
51986;BME280;38002;53.296;6.600;2024-03-23T11:49:29;100748.13;;;9.08;100.00
51986;BME280;38002;53.296;6.600;2024-03-23T11:54:29;100737.63;;;9.49;100.00
51986;BME280;38002;53.296;6.600;2024-03-23T11:59:40;100730.44;;;9.91;99.62
51986;BME280;38002;53.296;6.600;2024-03-23T12:04:41;100733.16;;;9.91;95.24
51986;BME280;38002;53.296;6.600;2024-03-23T12:09:42;100723.22;;;9.74;97.01
51986;BME280;38002;53.296;6.600;2024-03-23T12:14:43;100746.53;;;9.41;98.21
51986;BME280;38002;53.296;6.600;2024-03-23T12:19:44;100765.25;;;9.09;97.56
51986;BME280;38002;53.296;6.600;2024-03-23T12:24:46;100751.31;;;8.59;96.92
51986;BME280;38002;53.296;6.600;2024-03-23T12:29:46;100743.16;;;8.04;96.37
51986;BME280;38002;53.296;6.600;2024-03-23T12:34:47;100746.88;;;7.66;97.04
51986;BME280;38002;53.296;6.600;2024-03-23T12:39:47;100742.72;;;7.72;98.57
51986;BME280;38002;53.296;6.600;2024-03-23T12:44:48;100727.84;;;8.23;96.71
51986;BME280;38002;53.296;6.600;2024-03-23T12:49:48;100712.59;;;8.21;95.95
51986;BME280;38002;53.296;6.600;2024-03-23T12:54:50;100738.50;;;7.97;98.04
51986;BME280;38002;53.296;6.600;2024-03-23T12:59:51;100754.69;;;7.60;99.02
51986;BME280;38002;53.296;6.600;2024-03-23T13:04:53;100736.69;;;7.32;100.00
51986;BME280;38002;53.296;6.600;2024-03-23T13:09:54;100730.66;;;7.47;100.00
51986;BME280;38002;53.296;6.600;2024-03-23T13:14:56;100739.31;;;7.60;100.00
51986;BME280;38002;53.296;6.600;2024-03-23T13:19:57;100731.50;;;7.48;100.00
51986;BME280;38002;53.296;6.600;2024-03-23T13:24:57;100745.34;;;7.25;100.00
51986;BME280;38002;53.296;6.600;2024-03-23T13:29:57;100746.38;;;7.05;100.00
51986;BME280;38002;53.296;6.600;2024-03-23T13:34:58;100737.09;;;7.17;100.00
51986;BME280;38002;53.296;6.600;2024-03-23T13:39:58;100732.69;;;7.36;100.00
51986;BME280;38002;53.296;6.600;2024-03-23T13:44:59;100755.47;;;7.23;100.00
51986;BME280;38002;53.296;6.600;2024-03-23T13:49:59;100742.78;;;6.95;100.00
51986;BME280;38002;53.296;6.600;2024-03-23T13:55:00;100732.00;;;7.14;100.00
51986;BME280;38002;53.296;6.600;2024-03-23T14:00:00;100729.03;;;7.73;100.00
51986;BME280;38002;53.296;6.600;2024-03-23T14:05:01;100724.97;;;8.24;100.00
51986;BME280;38002;53.296;6.600;2024-03-23T14:10:06;100731.91;;;8.63;100.00
51986;BME280;38002;53.296;6.600;2024-03-23T14:15:07;100723.53;;;8.57;99.80
51986;BME280;38002;53.296;6.600;2024-03-23T14:20:08;100736.53;;;8.26;99.17
51986;BME280;38002;53.296;6.600;2024-03-23T14:25:11;100714.00;;;8.26;99.18
51986;BME280;38002;53.296;6.600;2024-03-23T14:30:12;100719.84;;;8.58;99.83
51986;BME280;38002;53.296;6.600;2024-03-23T14:35:13;100714.97;;;8.79;98.62
51986;BME280;38002;53.296;6.600;2024-03-23T14:40:13;100718.06;;;8.84;97.70
51986;BME280;38002;53.296;6.600;2024-03-23T14:45:13;100714.06;;;8.88;97.02
51986;BME280;38002;53.296;6.600;2024-03-23T14:50:16;100714.66;;;8.82;97.18
51986;BME280;38002;53.296;6.600;2024-03-23T14:55:16;100713.72;;;8.91;97.04
51986;BME280;38002;53.296;6.600;2024-03-23T15:00:17;100716.84;;;8.96;96.97
51986;BME280;38002;53.296;6.600;2024-03-23T15:05:18;100713.34;;;9.04;95.77
51986;BME280;38002;53.296;6.600;2024-03-23T15:10:19;100704.59;;;9.10;95.52
51986;BME280;38002;53.296;6.600;2024-03-23T15:15:19;100689.09;;;9.28;95.53
51986;BME280;38002;53.296;6.600;2024-03-23T15:20:19;100706.31;;;9.37;93.38
51986;BME280;38002;53.296;6.600;2024-03-23T15:25:20;100681.34;;;9.33;92.75
51986;BME280;38002;53.296;6.600;2024-03-23T15:30:23;100678.72;;;9.24;92.91
51986;BME280;38002;53.296;6.600;2024-03-23T15:35:24;100673.09;;;9.17;93.33
51986;BME280;38002;53.296;6.600;2024-03-23T15:40:25;100675.56;;;9.10;92.29
51986;BME280;38002;53.296;6.600;2024-03-23T15:45:25;100673.13;;;8.99;91.16
51986;BME280;38002;53.296;6.600;2024-03-23T15:50:25;100665.44;;;8.95;90.88
51986;BME280;38002;53.296;6.600;2024-03-23T15:55:26;100671.28;;;8.82;90.67
51986;BME280;38002;53.296;6.600;2024-03-23T16:00:26;100664.94;;;8.74;90.90
51986;BME280;38002;53.296;6.600;2024-03-23T16:05:27;100662.53;;;8.71;91.74
51986;BME280;38002;53.296;6.600;2024-03-23T16:10:28;100663.53;;;8.70;92.10
51986;BME280;38002;53.296;6.600;2024-03-23T16:15:28;100663.13;;;8.64;91.07
51986;BME280;38002;53.296;6.600;2024-03-23T16:20:29;100658.09;;;8.52;91.56
51986;BME280;38002;53.296;6.600;2024-03-23T16:25:29;100656.22;;;8.35;90.32
51986;BME280;38002;53.296;6.600;2024-03-23T16:30:30;100652.59;;;8.16;91.07
51986;BME280;38002;53.296;6.600;2024-03-23T16:35:31;100655.84;;;8.02;91.04
51986;BME280;38002;53.296;6.600;2024-03-23T16:40:31;100650.19;;;7.86;91.15
51986;BME280;38002;53.296;6.600;2024-03-23T16:45:32;100659.97;;;7.69;91.36
51986;BME280;38002;53.296;6.600;2024-03-23T16:50:35;100663.00;;;7.57;90.73
51986;BME280;38002;53.296;6.600;2024-03-23T16:55:35;100657.47;;;7.49;92.19
51986;BME280;38002;53.296;6.600;2024-03-23T17:00:36;100657.19;;;7.42;91.67
51986;BME280;38002;53.296;6.600;2024-03-23T17:05:40;100655.66;;;7.40;91.57
51986;BME280;38002;53.296;6.600;2024-03-23T17:10:40;100651.78;;;7.42;91.47
51986;BME280;38002;53.296;6.600;2024-03-23T17:15:44;100659.06;;;7.42;92.14
51986;BME280;38002;53.296;6.600;2024-03-23T17:20:45;100652.53;;;7.35;91.75
51986;BME280;38002;53.296;6.600;2024-03-23T17:25:45;100645.72;;;7.21;91.30
51986;BME280;38002;53.296;6.600;2024-03-23T17:30:46;100645.47;;;7.05;91.65
51986;BME280;38002;53.296;6.600;2024-03-23T17:35:47;100652.06;;;6.93;92.92
51986;BME280;38002;53.296;6.600;2024-03-23T17:40:47;100649.63;;;6.80;92.45
51986;BME280;38002;53.296;6.600;2024-03-23T17:45:49;100653.31;;;6.69;93.30
51986;BME280;38002;53.296;6.600;2024-03-23T17:51:03;100651.34;;;6.62;93.34
51986;BME280;38002;53.296;6.600;2024-03-23T17:56:04;100642.97;;;6.55;92.95
51986;BME280;38002;53.296;6.600;2024-03-23T18:01:06;100640.38;;;6.44;92.90
51986;BME280;38002;53.296;6.600;2024-03-23T18:06:07;100641.09;;;6.36;93.37
51986;BME280;38002;53.296;6.600;2024-03-23T18:11:08;100640.09;;;6.28;93.91
51986;BME280;38002;53.296;6.600;2024-03-23T18:16:09;100635.13;;;6.23;93.94
51986;BME280;38002;53.296;6.600;2024-03-23T18:21:09;100647.88;;;6.21;93.64
51986;BME280;38002;53.296;6.600;2024-03-23T18:26:09;100640.34;;;6.15;93.92
51986;BME280;38002;53.296;6.600;2024-03-23T18:31:10;100638.19;;;6.09;94.63
51986;BME280;38002;53.296;6.600;2024-03-23T18:36:10;100635.06;;;5.95;94.94
51986;BME280;38002;53.296;6.600;2024-03-23T18:41:11;100627.19;;;5.82;95.75
51986;BME280;38002;53.296;6.600;2024-03-23T18:46:11;100629.69;;;5.74;95.81
51986;BME280;38002;53.296;6.600;2024-03-23T18:51:12;100627.97;;;5.63;96.77
51986;BME280;38002;53.296;6.600;2024-03-23T18:56:12;100615.16;;;5.56;96.96
51986;BME280;38002;53.296;6.600;2024-03-23T19:01:13;100611.03;;;5.52;97.07
51986;BME280;38002;53.296;6.600;2024-03-23T19:06:13;100604.91;;;5.49;97.69
51986;BME280;38002;53.296;6.600;2024-03-23T19:11:14;100607.16;;;5.44;97.83
51986;BME280;38002;53.296;6.600;2024-03-23T19:16:14;100613.81;;;5.40;98.84
51986;BME280;38002;53.296;6.600;2024-03-23T19:21:16;100606.41;;;5.33;99.08
51986;BME280;38002;53.296;6.600;2024-03-23T19:26:16;100613.19;;;5.27;100.00
51986;BME280;38002;53.296;6.600;2024-03-23T19:31:17;100611.34;;;5.28;99.83
51986;BME280;38002;53.296;6.600;2024-03-23T19:36:17;100607.78;;;5.27;99.45
51986;BME280;38002;53.296;6.600;2024-03-23T19:41:17;100609.03;;;5.23;100.00
51986;BME280;38002;53.296;6.600;2024-03-23T19:46:18;100601.75;;;5.14;100.00
51986;BME280;38002;53.296;6.600;2024-03-23T19:51:18;100606.28;;;5.14;99.97
51986;BME280;38002;53.296;6.600;2024-03-23T19:56:19;100599.63;;;5.08;100.00
51986;BME280;38002;53.296;6.600;2024-03-23T20:01:19;100585.81;;;5.01;99.96
51986;BME280;38002;53.296;6.600;2024-03-23T20:06:21;100596.84;;;4.98;100.00
51986;BME280;38002;53.296;6.600;2024-03-23T20:11:25;100580.09;;;4.95;100.00
51986;BME280;38002;53.296;6.600;2024-03-23T20:16:27;100593.81;;;4.92;100.00
51986;BME280;38002;53.296;6.600;2024-03-23T20:21:27;100570.44;;;4.92;100.00
51986;BME280;38002;53.296;6.600;2024-03-23T20:26:28;100577.06;;;4.88;100.00
51986;BME280;38002;53.296;6.600;2024-03-23T20:31:28;100577.94;;;4.89;100.00
51986;BME280;38002;53.296;6.600;2024-03-23T20:36:29;100571.09;;;4.85;100.00
51986;BME280;38002;53.296;6.600;2024-03-23T20:41:30;100559.88;;;4.80;100.00
51986;BME280;38002;53.296;6.600;2024-03-23T20:46:30;100559.00;;;4.79;100.00
51986;BME280;38002;53.296;6.600;2024-03-23T20:51:31;100556.47;;;4.78;100.00
51986;BME280;38002;53.296;6.600;2024-03-23T20:56:31;100546.69;;;4.77;100.00
51986;BME280;38002;53.296;6.600;2024-03-23T21:01:32;100534.66;;;4.81;100.00
51986;BME280;38002;53.296;6.600;2024-03-23T21:06:33;100530.81;;;4.83;100.00
51986;BME280;38002;53.296;6.600;2024-03-23T21:11:34;100525.31;;;4.85;100.00
51986;BME280;38002;53.296;6.600;2024-03-23T21:16:34;100511.72;;;4.86;100.00
51986;BME280;38002;53.296;6.600;2024-03-23T21:21:34;100513.16;;;4.90;100.00
51986;BME280;38002;53.296;6.600;2024-03-23T21:26:35;100509.31;;;4.93;100.00
51986;BME280;38002;53.296;6.600;2024-03-23T21:31:36;100497.56;;;4.94;100.00
51986;BME280;38002;53.296;6.600;2024-03-23T21:36:36;100489.22;;;4.97;100.00
51986;BME280;38002;53.296;6.600;2024-03-23T21:41:37;100490.63;;;5.01;100.00
51986;BME280;38002;53.296;6.600;2024-03-23T21:46:37;100482.44;;;5.02;100.00
51986;BME280;38002;53.296;6.600;2024-03-23T21:51:38;100461.63;;;5.05;100.00
51986;BME280;38002;53.296;6.600;2024-03-23T21:56:38;100462.03;;;5.00;100.00
51986;BME280;38002;53.296;6.600;2024-03-23T22:01:39;100438.88;;;4.97;100.00
51986;BME280;38002;53.296;6.600;2024-03-23T22:06:39;100437.31;;;4.95;100.00
51986;BME280;38002;53.296;6.600;2024-03-23T22:11:40;100419.72;;;4.91;100.00
51986;BME280;38002;53.296;6.600;2024-03-23T22:16:40;100418.72;;;4.92;100.00
51986;BME280;38002;53.296;6.600;2024-03-23T22:21:41;100393.66;;;4.91;100.00
51986;BME280;38002;53.296;6.600;2024-03-23T22:26:42;100385.41;;;4.93;100.00
51986;BME280;38002;53.296;6.600;2024-03-23T22:31:43;100399.31;;;4.98;100.00
51986;BME280;38002;53.296;6.600;2024-03-23T22:36:43;100390.25;;;4.99;100.00
51986;BME280;38002;53.296;6.600;2024-03-23T22:41:44;100377.47;;;5.01;100.00
51986;BME280;38002;53.296;6.600;2024-03-23T22:46:44;100375.22;;;5.06;100.00
51986;BME280;38002;53.296;6.600;2024-03-23T22:51:45;100391.72;;;5.13;100.00
51986;BME280;38002;53.296;6.600;2024-03-23T22:56:45;100392.16;;;5.18;100.00
51986;BME280;38002;53.296;6.600;2024-03-23T23:01:45;100361.03;;;5.14;100.00
51986;BME280;38002;53.296;6.600;2024-03-23T23:06:46;100351.81;;;5.07;100.00
51986;BME280;38002;53.296;6.600;2024-03-23T23:11:47;100337.06;;;5.01;100.00
51986;BME280;38002;53.296;6.600;2024-03-23T23:16:47;100329.16;;;4.99;100.00
51986;BME280;38002;53.296;6.600;2024-03-23T23:21:48;100318.50;;;4.98;100.00
51986;BME280;38002;53.296;6.600;2024-03-23T23:26:48;100313.97;;;4.98;100.00
51986;BME280;38002;53.296;6.600;2024-03-23T23:31:49;100305.31;;;4.95;100.00
51986;BME280;38002;53.296;6.600;2024-03-23T23:36:49;100301.75;;;4.94;100.00
51986;BME280;38002;53.296;6.600;2024-03-23T23:41:50;100302.75;;;4.93;100.00
51986;BME280;38002;53.296;6.600;2024-03-23T23:46:50;100296.50;;;4.93;100.00
51986;BME280;38002;53.296;6.600;2024-03-23T23:51:51;100298.22;;;4.94;100.00
51986;BME280;38002;53.296;6.600;2024-03-23T23:56:51;100298.22;;;4.94;100.00
